Tiempo atmosférico en la estación meteorológica de Soria, Soria (1082 m.)



Fecha
DESCASC
Temp. máxima en grados centígrados (hora)
DESCASC
Temp. mínima en grados centígrados (hora)
DESCASC
Temp. media en grados centígrados
DESCASC
Racha de viento máxima en m/sg (hora)
DESCASC
Velocidad máxima media en intervalos de 10 minutos(hora)
DESCASC
Precipitaciones diarias en mm
DESCASC
Precipitaciones de 00:00 a 06:00 en mm
DESCASC
Precipitaciones de 06:00 a 12:00 en mm
DESCASC
Precipitaciones de 12:00 a 18:00 en mm
DESCASC
Precipitaciones de 18:00 a 24:00 en mm
DESCASC
20-09-2020 18.6 (18:30) 11.4 (06:00) 15 9.17 (16:20) 4.44 (01:20) 2.2 0 1.8 0.4 0
19-09-2020 17.6 (14:40) 11.8 (06:30) 14.7 11.94 (15:20) 6.39 (15:10) 7.2 3 0.4 3.8 0
17-09-2020 25.2 (16:40) 17.3 (00:00) 21.3 10.28 (16:50) 5 (16:50) 0 0 0 0 0
16-09-2020 28.6 (16:10) 12 (07:00) 20.3 5.28 (18:50) 3.06 (18:50) 0 0 0 0 0
15-09-2020 26.4 (15:50) 15.5 (00:00) 20.9 9.44 (16:10) 5.56 (16:10) 0.2 0 0.2 0 0
14-09-2020 29.2 (16:00) 11.8 (00:00) 20.5 8.61 (15:20) 4.44 (16:40) 0 0 0 0 0
13-09-2020 31 (16:30) 11 (00:00) 21 10 (16:00) 3.61 (15:50) 0 0 0 0 0
12-09-2020 29.6 (16:10) 8.8 (08:00) 19.2 8.33 (19:00) 4.17 (18:40) 0 0 0 0 0
11-09-2020 29.7 (17:30) 11.1 (00:00) 20.4 7.78 (18:20) 4.44 (18:10) 0 0 0 0 0
10-09-2020 26.2 (15:10) 13.8 (00:00) 20 9.17 (13:20) 4.72 (00:30) 0 0 0 0 0
09-09-2020 26.7 (16:50) 8.4 (06:00) 17.6 9.17 (16:10) 4.44 (18:40) 0 0 0 0 0
08-09-2020 24.4 (16:50) 7.3 (00:00) 15.8 9.17 (17:10) 4.17 (03:50) 0 0 0 0 0
07-09-2020 20.2 (16:50) 10.1 (07:10) 15.2 13.33 (15:50) 8.06 (15:50) 0 0 0 0 0
06-09-2020 25.9 (15:20) 11.9 (00:00) 18.9 10.83 (18:00) 7.22 (18:00) 0 0 0 0 0
05-09-2020 29.7 (15:00) 12.3 (00:00) 21 10.56 (15:00) 5 (17:20) 0 0 0 0 0
04-09-2020 31.8 (17:50) 10.5 (00:00) 21.1 6.94 (19:20) 2.78 (17:10) 0 0 0 0 0
03-09-2020 -- (--) -- (--) -- -- (--) -- (--) -- 0 0 -- 0
02-09-2020 25.9 (17:40) 10.4 (00:00) 18.1 7.5 (03:00) 4.17 (00:10) 0 0 0 0 0
01-09-2020 25 (16:10) 9.4 (00:00) 17.2 10.28 (23:10) 5.28 (23:00) 0 0 0 0 0
31-08-2020 24 (17:30) 4.7 (00:00) 14.3 8.33 (17:00) 4.17 (18:40) 0 0 0 0 0
30-08-2020 16.8 (16:20) 6.3 (00:00) 11.5 10 (14:00) 5.83 (14:00) 0 0 0 0 0
29-08-2020 20.5 (13:50) 8.6 (00:00) 14.6 9.72 (22:20) 4.17 (12:30) 2 0 0 1.2 0.8
28-08-2020 28.2 (16:30) 11.7 (00:00) 20 11.11 (23:20) 6.11 (23:20) 0 0 0 0 0
27-08-2020 33.3 (17:10) 15.4 (00:00) 24.3 9.72 (15:10) 4.44 (18:00) 0 0 0 0 0
26-08-2020 34.2 (17:10) 14.2 (00:00) 24.2 9.44 (15:50) 4.17 (16:40) 0 0 0 0 0
25-08-2020 33.5 (17:50) 11.5 (00:00) 22.5 11.67 (14:10) 5.28 (17:00) 0 0 0 0 0
24-08-2020 30.2 (18:10) 10.9 (08:10) 20.6 7.5 (17:10) 3.61 (17:20) 0 0 0 0 0

Gráficas

Temp. máximas Temp. mínimas Temp. medias Precipitaciones Rachas de viento máximas Velocidades máximas media en intervalos de 10 minutos

Datos horarios

Fecha y hora oficial Temperatura (ºC) Velocidad del viento (km/h) Dirección del viento Racha (km/h) Dirección de racha Precipitación (mm) Presión (hPa) Tendencia (hPa) Humedad (%)
2020-09-22 23:00:00 14 4 Oeste 8 Oeste 0 893.3 1 70
2020-09-22 22:00:00 15 4 Sudoeste 14 Norte 0 893.2 1.1 64
2020-09-22 21:00:00 16.5 6 Noroeste 13 Noroeste 0 892.7 -- 56
2020-09-22 20:00:00 17.9 5 Oeste 23 Oeste 0 892.3 -- 51
2020-09-22 19:00:00 20.2 10 Oeste 29 Oeste 0 892.1 -- 41
2020-09-22 18:00:00 21.2 13 Oeste 28 Oeste 0 892.3 -- 37
2020-09-22 17:00:00 20.5 13 Oeste 27 Oeste 0 892.6 -- 39
2020-09-22 16:00:00 21.2 13 Oeste 25 Oeste 0 893.2 -- 41
2020-09-22 15:00:00 21.6 11 Sudoeste 22 Sudoeste 0 893.7 -- 40
2020-09-22 14:00:00 21 9 Oeste 17 Oeste 0 894.2 -- 41
2020-09-22 13:00:00 18 7 Sudoeste 17 Oeste 0 894.7 -- 56
2020-09-22 12:00:00 16.8 4 Noroeste 13 Sudoeste 0 895.1 -- 70
2020-09-22 11:00:00 15.8 3 Norte 8 Norte 0 895.2 -- 71
2020-09-22 10:00:00 13.1 3 Noroeste 8 Noroeste 0 895 -- 85
2020-09-22 09:00:00 9.5 2 Norte 4 Noroeste 0 894.8 -- 96
2020-09-22 08:00:00 8.8 2 Sudeste 6 Norte 0 894.8 -- 94
2020-09-22 07:00:00 9.4 2 Norte 5 Norte 0 894.8 -- 93
2020-09-22 06:00:00 9.6 0 Calma 5 Nordeste 0 894.8 -- 95
2020-09-22 05:00:00 9.2 3 Este 5 Nordeste 0 895.1 -- 95
2020-09-22 04:00:00 9.8 2 Nordeste 7 Este 0 895.4 -- 92
2020-09-22 03:00:00 10.3 0 Calma 9 Nordeste 0 896 -- 90
2020-09-22 02:00:00 11.7 3 Norte 7 Noroeste 0 896.3 -- 88
2020-09-22 01:00:00 12.2 3 Sudeste 9 Sudoeste 0 896.5 -- 87
2020-09-22 00:00:00 12.3 4 Nordeste 9 Nordeste 0 896.5 -- 84
2020-09-21 23:00:00 12.8 4 Este 10 Este 0 896.7 -- 83
2020-09-21 22:00:00 13.9 5 Nordeste 12 Nordeste 0 896.5 -- 78
2020-09-21 21:00:00 15.1 6 Nordeste 14 Nordeste 0 896.1 -- 74
2020-09-21 20:00:00 16.8 5 Nordeste 16 Norte 0 895.8 -- 63
2020-09-21 19:00:00 18.6 7 Nordeste 16 Nordeste 0 895.7 -- 53
2020-09-21 18:00:00 18 8 Norte 16 Norte 0 895.8 -- 60
2020-09-21 17:00:00 18.4 10 Nordeste 17 Nordeste 0 895.8 -- 54
2020-09-21 16:00:00 18.9 5 Sudeste 13 Sudeste 0 895.9 -- 58
2020-09-21 15:00:00 18.7 7 Sur 12 Oeste 0 896.2 -- 57
2020-09-21 14:00:00 19.6 7 Sudoeste 13 Sudoeste 0 896.7 -- 56
2020-09-21 13:00:00 18.5 5 Noroeste 12 Oeste 0 896.9 -- 62
2020-09-21 12:00:00 18.1 4 Norte 10 Norte 0 897.1 -- 63
2020-09-21 11:00:00 15.3 5 Noroeste 10 Noroeste 0 897.1 -- 82
2020-09-21 10:00:00 12.4 4 Norte 13 Noroeste 0 896.8 -- 96
2020-09-21 09:00:00 11.6 4 Norte 9 Noroeste 0 896.5 -- 100
2020-09-21 08:00:00 11.4 4 Noroeste 7 Noroeste 0 896.3 -- 99
2020-09-21 07:00:00 11.4 0 Calma 6 Nordeste 0 896 -- 98
2020-09-21 06:00:00 12.3 0 Calma 10 Norte 0 895.7 -- 95
2020-09-21 05:00:00 12.6 3 Norte 7 Norte 0 895.8 -- 96
2020-09-21 04:00:00 12.4 2 Noroeste 8 Nordeste 0 896 -- 95
2020-09-21 03:00:00 12.7 3 Norte 12 Oeste 0 896.4 -- 96
2020-09-21 02:00:00 12.9 6 Oeste 13 Oeste 0 896.5 -- 96
2020-09-21 01:00:00 12.7 5 Sudoeste 9 Sudoeste 0 896.6 -- 97
2020-09-21 00:00:00 13 5 Oeste 9 Oeste 0 896.5 -- 95
2020-09-20 23:00:00 13.4 3 Oeste 11 Oeste 0 896.6 -- 92
2020-09-20 22:00:00 13.9 6 Oeste 10 Sudoeste 0 896.5 -- 93
2020-09-20 21:00:00 14 4 Oeste 17 Oeste 0 895.9 -- 93
2020-09-20 20:00:00 14.3 12 Oeste 31 Sudoeste 0 895.6 -- 91
2020-09-20 19:00:00 17.3 11 Sudoeste 24 Sudoeste 0 895.2 -- 76
2020-09-20 18:00:00 18.3 11 Oeste 22 Oeste 0 895 -- 70
2020-09-20 17:00:00 17.7 12 Oeste 33 Oeste 0 895 -- 76
2020-09-20 16:00:00 18 14 Oeste 27 Oeste 0 895.1 -- 77
2020-09-20 15:00:00 16.2 16 Oeste 27 Oeste 0.2 895.6 -- 82
2020-09-20 14:00:00 15.8 12 Oeste 23 Oeste 0.2 895.9 -- 90
2020-09-20 13:00:00 15.5 9 Sudoeste 20 Oeste 0 896 -- 91
2020-09-20 12:00:00 14.9 13 Oeste 22 Oeste 0.4 896.2 -- 92
2020-09-20 11:00:00 14.6 8 Oeste 17 Oeste 0 896.1 -- 93
2020-09-20 10:00:00 13.3 6 Oeste 10 Oeste 0 895.7 -- 98
2020-09-20 09:00:00 12.6 3 Sudoeste 7 Sudoeste 0.8 895.6 -- 99
2020-09-20 08:00:00 12.4 5 Sudoeste 13 Oeste 0.6 895.4 -- 99
2020-09-20 07:00:00 11.9 5 Sudoeste 10 Sudoeste 0 895.5 -- 98
2020-09-20 06:00:00 11.4 3 Sudeste 15 Oeste 0 895.5 -- 96
2020-09-20 05:00:00 11.6 8 Sudoeste 17 Oeste 0 895.4 -- 95
2020-09-20 04:00:00 12.5 10 Oeste 24 Noroeste 0 895.6 -- 91
2020-09-20 03:00:00 13.2 12 Oeste 25 Oeste 0 895.8 -- 90
2020-09-20 02:00:00 13.4 11 Oeste 27 Oeste 0 895.7 -- 89
2020-09-20 01:00:00 13.7 14 Oeste 25 Sudoeste 0 895.6 -- 89
2020-09-20 00:00:00 13.6 8 Oeste 12 Oeste 0 895.7 -- 90
2020-09-19 23:00:00 13.5 6 Oeste 16 Oeste 0 895.6 -- 91
2020-09-19 22:00:00 13.6 6 Oeste 12 Oeste 0 895.3 -- 91
2020-09-19 21:00:00 13.8 5 Sudoeste 15 Sudoeste 0 894.6 -- 89
2020-09-19 20:00:00 14.8 9 Oeste 24 Oeste 0 894.1 -- 84
2020-09-19 19:00:00 16 8 Oeste 29 Oeste 0 893.7 -- 78
2020-09-19 18:00:00 16.1 15 Oeste 28 Oeste 0.2 893.2 -- 84
2020-09-19 17:00:00 14.1 10 Oeste 35 Oeste 1.4 893.3 -- 88
2020-09-19 16:00:00 14.6 17 Oeste 43 Oeste 1.4 893.1 -- 90
2020-09-19 15:00:00 16.7 18 Oeste 37 Oeste 0.4 892.6 -- 81
2020-09-19 14:00:00 15.2 12 Sudoeste 26 Oeste 0 892.9 -- 86
2020-09-19 13:00:00 14.6 10 Sudoeste 32 Sudoeste 0.4 892.9 -- 91
2020-09-19 12:00:00 14.2 14 Sur 33 Sur 0.2 892.9 -- 92
2020-09-19 11:00:00 13.7 13 Sudoeste 30 Sudoeste 0.2 892.9 -- 93
2020-09-19 10:00:00 13.5 12 Sudoeste 27 Sudoeste 0 892.5 -- 94
2020-09-19 09:00:00 12.5 10 Sur 21 Sur 0 892.3 -- 97
2020-09-19 08:00:00 12.1 12 Sur 23 Sur 0 892.1 -- 97
2020-09-19 07:00:00 11.9 4 Sur 22 Sudoeste 0 892.1 -- 96
2020-09-19 06:00:00 12 10 Sur 17 Sur 0 892.1 -- 95
2020-09-19 05:00:00 12.1 6 Sudoeste 30 Sudoeste 2 892.3 -- 91
2020-09-19 04:00:00 13.4 17 Sur 33 Sur 0.6 891.9 -- 92
2020-09-19 03:00:00 13.1 6 Sur 14 Sur 0.4 892.3 -- 93
2020-09-19 02:00:00 13.1 6 Sur 14 Sur 0 892.7 -- 91
2020-09-19 01:00:00 13.2 3 Sur 10 Sudeste 0 893.1 -- 90
2020-09-19 00:00:00 13.1 3 Sudoeste 13 Sur 0 893.2 -- 89
2020-09-18 23:00:00 13 8 Sur 14 Sur 0 893.6 -- 92
2020-09-18 22:00:00 13.1 4 Sur 13 Sudoeste 0 893.2 -- 91
2020-09-18 21:00:00 13.8 6 Sur 45 Sudoeste 1.8 893 -- 87
2020-09-18 20:00:00 18.2 11 Sudoeste 24 Sudoeste 0 892.3 -- 64
2020-09-18 19:00:00 19.5 11 Sudoeste 22 Oeste 0 892.1 -- 57
2020-09-18 18:00:00 20.4 9 Sur 23 Oeste 0 891.8 -- 54
2020-09-18 17:00:00 20.4 9 Sur 22 Sudeste 0 891.7 -- 58
2020-09-18 16:00:00 19.3 11 Sur 31 Sur 0 892.6 -- 61
2020-09-18 15:00:00 19.6 15 Sur 32 Sur 0 893.1 -- 56
2020-09-18 14:00:00 19.6 12 Sur 27 Sur 0 892.9 -- 61
2020-09-18 13:00:00 18.6 12 Sur 25 Sur 0.2 893.3 -- 70
2020-09-18 12:00:00 18.6 14 Sur 29 Sur 0 893.7 -- 71
2020-09-18 11:00:00 16.9 9 Sur 23 Sur 0 893.6 -- 84
2020-09-18 10:00:00 16.4 8 Sudoeste 21 Sur 0 893 -- 85
2020-09-18 09:00:00 16.1 9 Sur 23 Sudeste 0 892.6 -- 86
2020-09-18 08:00:00 15.9 13 Sur 21 Sudeste 0 892.5 -- 88
2020-09-18 07:00:00 15.6 6 Sur 17 Sur 0 892.1 -- 92
2020-09-18 06:00:00 15.2 5 Este 10 Este 0 892.4 -- 95
2020-09-18 05:00:00 15.2 4 Este 13 Nordeste 0.4 892.6 -- 96
2020-09-18 04:00:00 15.3 5 Este 10 Norte 0.8 892.9 -- 95
2020-09-18 03:00:00 15.7 5 Noroeste 14 Oeste 0.8 893.4 -- 94
2020-09-18 02:00:00 15.8 3 Norte 11 Oeste 1 893.9 -- 93
2020-09-18 01:00:00 16.1 8 Sur 48 Sur 3.2 894.9 -- 90
2020-09-18 00:00:00 18.1 6 Este 9 Este 0 893.8 -- 67
2020-09-17 23:00:00 19.3 3 Este 8 Sur 0 894 -- 63
2020-09-17 22:00:00 19.9 6 Sur 18 Sur 0 894.1 -- 61
2020-09-17 21:00:00 20.8 10 Sur 21 Sudoeste 0 893.8 -- 58
2020-09-17 20:00:00 21.9 12 Sudoeste 26 Sur 0 893.6 -- 53
2020-09-17 19:00:00 23.1 11 Sur 27 Sudoeste 0 893.5 -- 48
2020-09-17 18:00:00 24.5 15 Sur 32 Sur 0 893.4 -- 43
2020-09-17 17:00:00 24.2 15 Sur 37 Sur 0 893.6 -- 42
2020-09-17 16:00:00 25 14 Sur 29 Sudeste 0 893.8 -- 41
2020-09-17 15:00:00 23.6 12 Sur 30 Sur 0 894.3 -- 44
2020-09-17 14:00:00 23.9 10 Sur 27 Este 0 894.6 -- 43
2020-09-17 13:00:00 24.2 10 Sudeste 28 Sudeste 0 895.1 -- 40
2020-09-17 12:00:00 21.8 7 Sur 14 Sur 0 895.7 -- 51
2020-09-17 11:00:00 20.4 4 Sudoeste 10 Sudoeste 0 895.8 -- 55
2020-09-17 10:00:00 18.9 3 Sur 10 Este 0 895.9 -- 63
2020-09-17 09:00:00 17.6 4 Este 10 Este 0 895.7 -- 66
2020-09-17 08:00:00 17.3 4 Este 8 Nordeste 0 895.8 -- 67
2020-09-17 07:00:00 17.9 3 Este 7 Sudoeste 0 895.9 -- 64
2020-09-17 06:00:00 18.2 4 Sur 9 Sudeste 0 896.1 -- 62
2020-09-17 05:00:00 17.5 2 Sudeste 10 Nordeste 0 896 -- 65
2020-09-17 04:00:00 18 0 Calma 6 Norte 0 896.5 -- 61
2020-09-17 03:00:00 18.7 3 Norte 6 Norte 0 897 -- 56
2020-09-17 02:00:00 19.4 2 Oeste 14 Oeste 0 897.2 -- 54
2020-09-17 01:00:00 19.7 6 Norte 13 Nordeste 0 897.2 -- 52
2020-09-17 00:00:00 19.8 5 Nordeste 12 Nordeste 0 897.5 -- 53
2020-09-16 23:00:00 19.7 4 Nordeste 10 Nordeste 0 897.5 -- 54
2020-09-16 22:00:00 20.6 4 Este 12 Este 0 897.5 -- 51
2020-09-16 21:00:00 22.1 7 Este 15 Este 0 897.3 -- 47
2020-09-16 20:00:00 23.9 6 Este 18 Sudeste 0 896.8 -- 43
2020-09-16 19:00:00 25.5 9 Sudeste 19 Este 0 896.9 -- 37
2020-09-16 18:00:00 27.4 8 Sudeste 18 Sur 0 896.6 -- 30
2020-09-16 17:00:00 28.4 4 Este 19 Este 0 896.9 -- 28
2020-09-16 16:00:00 28.4 6 Sudeste 19 Sur 0 897.5 -- 28
2020-09-16 15:00:00 27.2 4 Este 13 Sur 0 898.2 -- 31
2020-09-16 14:00:00 26.7 5 Este 12 Nordeste 0 898.8 -- 33
2020-09-16 13:00:00 25.7 5 Nordeste 12 Sudeste 0 899.3 -- 35
2020-09-16 12:00:00 24.9 3 Este 11 Nordeste 0 899.7 -- 42
2020-09-16 11:00:00 20.9 4 Norte 10 Nordeste 0 899.9 -- 55
2020-09-16 10:00:00 16.8 6 Norte 10 Norte 0 900.1 -- 71
2020-09-16 09:00:00 13.4 0 Calma 5 Noroeste 0 900 -- 85
2020-09-16 08:00:00 12.2 2 Norte 6 Este 0 899.9 -- 89
2020-09-16 07:00:00 12.1 3 Nordeste 5 Nordeste 0 899.8 -- 91
2020-09-16 06:00:00 12.8 0 Calma 8 Oeste 0 899.7 -- 87
2020-09-16 05:00:00 13 2 Norte 5 Noroeste 0 900 -- 87
2020-09-16 04:00:00 13.2 0 Calma 5 Sudeste 0 900 -- 84
2020-09-16 03:00:00 13.8 0 Calma 5 Sudeste 0 900 -- 83
2020-09-16 02:00:00 14.5 0 Calma 3 Norte 0 900.3 -- 78
2020-09-16 01:00:00 16 2 Sudeste 4 Este 0 900.2 -- 76
2020-09-16 00:00:00 17.2 3 Este 5 Norte 0 900 -- 69
2020-09-15 23:00:00 18.8 3 Norte 6 Norte 0 900.1 -- 61
2020-09-15 22:00:00 20.7 2 Oeste 6 Sur 0 899.7 -- 53
2020-09-15 21:00:00 22.2 3 Oeste 8 Oeste 0 899.2 -- 48
2020-09-15 20:00:00 24 6 Oeste 16 Oeste 0 899.1 -- 42
2020-09-15 19:00:00 25.1 7 Sudoeste 21 Oeste 0 899 -- 40
2020-09-15 18:00:00 26.2 8 Oeste 17 Oeste 0 899.1 -- 39
2020-09-15 17:00:00 24.9 7 Oeste 34 Oeste 0 899.4 -- 49
2020-09-15 16:00:00 25.3 12 Sudoeste 26 Sudoeste 0 899.7 -- 39
2020-09-15 15:00:00 25.2 9 Sur 22 Sur 0 900 -- 43
2020-09-15 14:00:00 24.5 8 Sudoeste 20 Sur 0 900.5 -- 46
2020-09-15 13:00:00 22.8 9 Sur 18 Sur 0 901 -- 51
2020-09-15 12:00:00 20.2 4 Sudeste 9 Sudeste 0 901.4 -- 64
2020-09-15 11:00:00 17.5 4 Norte 11 Noroeste 0 901.3 -- 74
2020-09-15 10:00:00 15.5 5 Sudoeste 14 Sur 0 902.1 -- 84
2020-09-15 09:00:00 16.1 3 Sudeste 10 Nordeste 0.2 901.4 -- 82
2020-09-15 08:00:00 15.9 4 Norte 15 Norte 0 901.3 -- 78
2020-09-15 07:00:00 16.6 4 Noroeste 18 Noroeste 0 900.8 -- 67
2020-09-15 06:00:00 17.5 5 Noroeste 17 Noroeste 0 900.9 -- 61
2020-09-15 05:00:00 17.7 0 Calma 4 Sudeste 0 900.2 -- 58
2020-09-15 04:00:00 17.6 3 Noroeste 10 Norte 0 900.2 -- 57
2020-09-15 03:00:00 17.7 4 Este 8 Este 0 900.5 -- 59
2020-09-15 02:00:00 18.5 2 Noroeste 5 Norte 0 900.5 -- 54
2020-09-15 01:00:00 19.2 0 Calma 12 Norte 0 900.4 -- 51
2020-09-15 00:00:00 19.4 3 Sudeste 9 Este 0 900.2 -- 49
2020-09-14 23:00:00 19.5 3 Este 10 Norte 0 900.2 -- 48
2020-09-14 22:00:00 21.4 2 Este 12 Sur 0 900 -- 42
2020-09-14 21:00:00 22.2 5 Sudeste 13 Sur 0 899.6 -- 40
2020-09-14 20:00:00 23.9 2 Sur 14 Noroeste 0 899.8 -- 39
2020-09-14 19:00:00 24.8 8 Noroeste 22 Sudoeste 0 900 -- 37
2020-09-14 18:00:00 25.7 8 Sudoeste 26 Sur 0 899.9 -- 31
2020-09-14 17:00:00 26.6 12 Sudoeste 26 Sudoeste 0 900 -- 27
2020-09-14 16:00:00 29.2 10 Sur 31 Sur 0 900.3 -- 23
2020-09-14 15:00:00 28 13 Sur 25 Sudoeste 0 901 -- 23
2020-09-14 14:00:00 26.2 10 Sur 23 Sur 0 901.4 -- 29
2020-09-14 13:00:00 26.7 9 Sur 24 Sur 0 901.8 -- 29
2020-09-14 12:00:00 24.8 8 Sudeste 19 Sudeste 0 902.3 -- 35
2020-09-14 11:00:00 21.3 3 Sur 8 Sur 0 902.5 -- 44
2020-09-14 10:00:00 16.8 2 Sudeste 4 Sudeste 0 902.6 -- 58
2020-09-14 09:00:00 13.4 2 Sudeste 4 Este 0 902.4 -- 68
2020-09-14 08:00:00 11.9 2 Este 7 Sudeste 0 902 -- 70
2020-09-14 07:00:00 12.4 2 Este 5 Este 0 901.8 -- 66
2020-09-14 06:00:00 13.4 0 Calma 4 Noroeste 0 902 -- 61
2020-09-14 05:00:00 14.1 0 Calma 4 Nordeste 0 902.2 -- 57
2020-09-14 04:00:00 15.1 3 Sudeste 5 Sudeste 0 902.4 -- 53
2020-09-14 03:00:00 16.7 3 Norte 6 Norte 0 902.5 -- 47
2020-09-14 02:00:00 17.6 3 Noroeste 12 Nordeste 0 902.4 -- 44
2020-09-14 01:00:00 18.9 4 Este 11 Este 0 902.1 -- 40
2020-09-14 00:00:00 21.3 6 Sur 14 Sur 0 902.3 -- 33
2020-09-13 23:00:00 21.9 8 Sur 14 Sur 0 902.3 -- 33
2020-09-13 22:00:00 23.1 7 Sudoeste 21 Sudeste 0 902.1 -- 32
2020-09-13 21:00:00 25 4 Sur 10 Sudoeste 0 901 -- 27
2020-09-13 20:00:00 27.3 8 Sudoeste 18 Sur 0 900.8 -- 24
2020-09-13 19:00:00 29.2 12 Sur 25 Sudeste 0 900.6 -- 20
2020-09-13 18:00:00 29.6 10 Sur 23 Sudoeste 0 900.6 -- 20
2020-09-13 17:00:00 30.8 9 Sur 23 Sur 0 900.8 -- 19
2020-09-13 16:00:00 30.4 11 Sur 36 Sudoeste 0 901 -- 21
2020-09-13 15:00:00 29.9 6 Sudoeste 28 Sur 0 901.3 -- 21
2020-09-13 14:00:00 28.9 11 Sur 22 Oeste 0 901.9 -- 24
2020-09-13 13:00:00 27.2 5 Sudoeste 13 Sur 0 902.5 -- 32
2020-09-13 12:00:00 24.6 5 Sudoeste 13 Sur 0 902.9 -- 38
2020-09-13 11:00:00 21.8 4 Este 11 Nordeste 0 902.9 -- 44
2020-09-13 10:00:00 17.5 4 Nordeste 8 Nordeste 0 902.7 -- 51
2020-09-13 09:00:00 12.1 3 Norte 7 Este 0 902.3 -- 70
2020-09-13 08:00:00 11.3 2 Nordeste 7 Este 0 901.9 -- 70
2020-09-13 07:00:00 11.7 0 Calma 3 Noroeste 0 901.7 -- 68
2020-09-13 06:00:00 12.1 3 Norte 8 Noroeste 0 901.4 -- 65
2020-09-13 05:00:00 12 3 Este 7 Este 0 901.4 -- 68
2020-09-13 04:00:00 12.7 3 Este 6 Este 0 901.3 -- 65
2020-09-13 03:00:00 13.7 4 Este 7 Nordeste 0 901.3 -- 63
2020-09-13 02:00:00 15.2 3 Norte 7 Nordeste 0 901.5 -- 59
2020-09-13 01:00:00 16.3 5 Nordeste 12 Nordeste 0 901.6 -- 56
2020-09-13 00:00:00 17.5 6 Nordeste 12 Nordeste 0 901.4 -- 46
2020-09-12 23:00:00 18.3 5 Nordeste 17 Nordeste 0 901.1 -- 43
2020-09-12 22:00:00 19.4 8 Nordeste 16 Nordeste 0 900.5 -- 41
2020-09-12 21:00:00 21.2 9 Nordeste 21 Nordeste 0 899.8 -- 38
2020-09-12 20:00:00 23.9 12 Este 25 Este 0 899.1 -- 37
2020-09-12 19:00:00 26.1 15 Nordeste 30 Nordeste 0 898.6 -- 33
2020-09-12 18:00:00 28.3 9 Nordeste 20 Nordeste 0 898.3 -- 11
2020-09-12 17:00:00 29.3 6 Nordeste 18 Este 0 898.2 -- 10
2020-09-12 16:00:00 29.3 9 Oeste 18 Sudeste 0 898.4 -- 8
2020-09-12 15:00:00 28.6 6 Sudoeste 15 Norte 0 898.7 -- 12
2020-09-12 14:00:00 28.2 4 Sudoeste 14 Nordeste 0 899 -- 13
2020-09-12 13:00:00 26.6 4 Sur 12 Sudoeste 0 899.2 -- 18
2020-09-12 12:00:00 24.3 7 Sur 13 Sur 0 899.3 -- 32
2020-09-12 11:00:00 20.5 3 Sur 7 Nordeste 0 899.2 -- 31
2020-09-12 10:00:00 15.3 3 Sudeste 10 Nordeste 0 898.9 -- 44
2020-09-12 09:00:00 10 4 Norte 7 Norte 0 898.7 -- 67
2020-09-12 08:00:00 8.8 0 Calma 3 Oeste 0 898.1 -- 79
2020-09-12 07:00:00 9.4 0 Calma 5 Norte 0 897.5 -- 76
2020-09-12 06:00:00 10.7 3 Norte 8 Norte 0 897.3 -- 71
2020-09-12 05:00:00 11.3 0 Calma 5 Norte 0 897.3 -- 71
2020-09-12 04:00:00 13.1 2 Noroeste 8 Nordeste 0 897 -- 69
2020-09-12 03:00:00 13.7 3 Este 6 Este 0 897.1 -- 72
2020-09-12 02:00:00 14.8 3 Sudeste 8 Este 0 897.1 -- 70
2020-09-12 01:00:00 16.4 3 Este 19 Norte 0 897 -- 65
2020-09-12 00:00:00 17.4 7 Norte 14 Norte 0 896.9 -- 64
2020-09-11 23:00:00 18.4 5 Norte 26 Nordeste 0 896.7 -- 57
2020-09-11 22:00:00 19.6 10 Nordeste 19 Nordeste 0 896.3 -- 49
2020-09-11 21:00:00 21.3 7 Nordeste 24 Nordeste 0 895.6 -- 41
2020-09-11 20:00:00 23.2 15 Nordeste 26 Nordeste 0 895 -- 31
2020-09-11 19:00:00 25.3 13 Este 28 Este 0 894.6 -- 36
2020-09-11 18:00:00 26.6 15 Nordeste 26 Nordeste 0 894.3 -- 35
2020-09-11 17:00:00 29.1 8 Este 23 Este 0 894.3 -- 21
2020-09-11 16:00:00 28.6 7 Sur 15 Sudoeste 0 894.7 -- 21
2020-09-11 15:00:00 27.3 6 Nordeste 18 Este 0 895.1 -- 24
2020-09-11 14:00:00 26.4 6 Nordeste 12 Sudeste 0 895.4 -- 27
2020-09-11 13:00:00 25 5 Sudeste 12 Sur 0 895.9 -- 29
2020-09-11 12:00:00 23.6 5 Sur 11 Sudoeste 0 896.2 -- 34
2020-09-11 11:00:00 21 3 Noroeste 8 Noroeste 0 896.2 -- 42
2020-09-11 10:00:00 16.5 3 Norte 9 Norte 0 896.2 -- 52
2020-09-11 09:00:00 11.6 4 Norte 10 Norte 0 896.1 -- 72
2020-09-11 08:00:00 11.2 3 Norte 6 Noroeste 0 895.9 -- 73
2020-09-11 07:00:00 11.3 0 Calma 5 Norte 0 896 -- 71
2020-09-11 06:00:00 12 0 Calma 7 Nordeste 0 896.1 -- 69
2020-09-11 05:00:00 13.3 3 Norte 11 Este 0 896.2 -- 66
2020-09-11 04:00:00 14.1 2 Oeste 12 Nordeste 0 896.5 -- 62
2020-09-11 03:00:00 15.2 5 Norte 16 Nordeste 0 896.8 -- 58
2020-09-11 02:00:00 15.6 5 Nordeste 13 Norte 0 897.1 -- 57
2020-09-11 01:00:00 16.4 7 Norte 23 Nordeste 0 897.4 -- 56
2020-09-11 00:00:00 16.6 9 Nordeste 17 Nordeste 0 897.6 -- 55
2020-09-10 23:00:00 17.2 9 Nordeste 27 Nordeste 0 897.7 -- 52
2020-09-10 22:00:00 18.6 11 Norte 18 Norte 0 897.5 -- 46
2020-09-10 21:00:00 20.3 12 Nordeste 27 Nordeste 0 897.1 -- 40
2020-09-10 20:00:00 22.3 12 Norte 28 Norte 0 897 -- 36
2020-09-10 19:00:00 24.2 13 Norte 30 Norte 0 897 -- 29
2020-09-10 18:00:00 25 16 Nordeste 33 Norte 0 897.1 -- 26
2020-09-10 17:00:00 25.7 13 Norte 29 Norte 0 897.4 -- 25
2020-09-10 16:00:00 25.6 12 Norte 28 Nordeste 0 898 -- 27
2020-09-10 15:00:00 26.1 12 Nordeste 32 Nordeste 0 898.4 -- 29
2020-09-10 14:00:00 24.1 15 Nordeste 33 Nordeste 0 898.9 -- 33
2020-09-10 13:00:00 24.3 13 Norte 28 Nordeste 0 899.3 -- 34
2020-09-10 12:00:00 23.2 14 Nordeste 29 Nordeste 0 899.7 -- 38
2020-09-10 11:00:00 21.8 13 Nordeste 31 Nordeste 0 899.7 -- 42
2020-09-10 10:00:00 19.4 10 Nordeste 23 Nordeste 0 899.5 -- 51
2020-09-10 09:00:00 14.8 3 Sudoeste 8 Nordeste 0 899.4 -- 69
2020-09-10 08:00:00 13.9 4 Este 13 Norte 0 899.2 -- 70
2020-09-10 07:00:00 15.2 10 Nordeste 21 Norte 0 899 -- 65
2020-09-10 06:00:00 14.5 4 Nordeste 12 Nordeste 0 899.3 -- 67
2020-09-10 05:00:00 14.5 3 Sudeste 27 Nordeste 0 899.7 -- 65
2020-09-10 04:00:00 15.8 10 Nordeste 27 Nordeste 0 900 -- 62
2020-09-10 03:00:00 15.2 6 Norte 14 Nordeste 0 900 -- 65
2020-09-10 02:00:00 15.9 4 Norte 21 Nordeste 0 900.4 -- 63
2020-09-10 01:00:00 16.9 6 Norte 31 Nordeste 0 900.5 -- 58
2020-09-10 00:00:00 16.7 8 Norte 23 Norte 0 900.4 -- 64
2020-09-09 23:00:00 17.8 9 Norte 29 Norte 0 900.5 -- 61
2020-09-09 22:00:00 18.8 14 Nordeste 25 Nordeste 0 900.2 -- 56
2020-09-09 21:00:00 20.5 9 Nordeste 24 Nordeste 0 899.3 -- 44
2020-09-09 20:00:00 22.6 12 Norte 27 Norte 0 898.8 -- 33
2020-09-09 19:00:00 24.2 12 Norte 30 Norte 0 898.7 -- 28
2020-09-09 18:00:00 25.1 15 Nordeste 29 Nordeste 0 898.7 -- 26
2020-09-09 17:00:00 26.3 10 Norte 33 Este 0 898.8 -- 23
2020-09-09 16:00:00 26.2 8 Este 24 Nordeste 0 899.1 -- 25
2020-09-09 15:00:00 24.8 12 Nordeste 28 Nordeste 0 899.6 -- 26
2020-09-09 14:00:00 24.7 11 Nordeste 23 Norte 0 900 -- 27
2020-09-09 13:00:00 24 4 Noroeste 13 Oeste 0 900.7 -- 28
2020-09-09 12:00:00 22.5 5 Sur 9 Sur 0 901.2 -- 34
2020-09-09 11:00:00 19.9 3 Nordeste 10 Norte 0 901.5 -- 40
2020-09-09 10:00:00 16.1 3 Nordeste 6 Nordeste 0 901.3 -- 47
2020-09-09 09:00:00 9.5 0 Calma 6 Este 0 901.2 -- 74
2020-09-09 08:00:00 8.8 4 Este 6 Este 0 901.1 -- 71
2020-09-09 07:00:00 8.6 3 Norte 9 Este 0 900.9 -- 71
2020-09-09 06:00:00 8.5 3 Nordeste 6 Este 0 900.7 -- 71
2020-09-09 05:00:00 9.6 3 Este 5 Este 0 900.9 -- 66
2020-09-09 04:00:00 10 4 Sudeste 6 Este 0 901.1 -- 63
2020-09-09 03:00:00 10.8 2 Sudeste 7 Este 0 901.3 -- 59
2020-09-09 02:00:00 12.7 3 Norte 6 Norte 0 901.5 -- 52
2020-09-09 01:00:00 13.2 2 Este 8 Nordeste 0 901.7 -- 49
2020-09-09 00:00:00 14.2 5 Norte 7 Norte 0 901.8 -- 46
2020-09-08 23:00:00 14.8 2 Este 9 Este 0 901.7 -- 44
2020-09-08 22:00:00 16 4 Este 15 Este 0 901.6 -- 42
2020-09-08 21:00:00 18.1 9 Este 27 Este 0 901.1 -- 36
2020-09-08 20:00:00 21 13 Este 24 Este 0 900.7 -- 30
2020-09-08 19:00:00 23.2 8 Sudeste 24 Este 0 900.4 -- 24
2020-09-08 18:00:00 23.6 10 Sudeste 33 Este 0 900.4 -- 24
2020-09-08 17:00:00 24.4 10 Sur 29 Sudeste 0 900.4 -- 22
2020-09-08 16:00:00 23.9 12 Sudeste 23 Sur 0 900.9 -- 24
2020-09-08 15:00:00 23.1 10 Sudeste 24 Este 0 901.2 -- 28
2020-09-08 14:00:00 22.1 10 Sudeste 22 Este 0 901.7 -- 32
2020-09-08 13:00:00 20.5 12 Sudeste 26 Sudeste 0 902.1 -- 35
2020-09-08 12:00:00 19.5 9 Sudeste 21 Este 0 902.3 -- 40
2020-09-08 11:00:00 17.5 6 Este 20 Este 0 902.4 -- 46
2020-09-08 10:00:00 13.8 9 Nordeste 17 Nordeste 0 902.2 -- 55
2020-09-08 09:00:00 9.8 4 Nordeste 12 Nordeste 0 902.2 -- 73
2020-09-08 08:00:00 7.3 3 Este 10 Este 0 901.8 -- 84
2020-09-08 07:00:00 7.9 6 Nordeste 9 Este 0 901.4 -- 81
2020-09-08 06:00:00 8.2 3 Nordeste 12 Nordeste 0 901.4 -- 81
2020-09-08 05:00:00 9.1 5 Este 19 Nordeste 0 901.1 -- 75
2020-09-08 04:00:00 10 11 Nordeste 23 Nordeste 0 900.9 -- 72
2020-09-08 03:00:00 10.3 4 Noroeste 15 Norte 0 901.4 -- 69
2020-09-08 02:00:00 10.8 5 Norte 16 Noroeste 0 901.6 -- 68
2020-09-08 01:00:00 10.8 5 Nordeste 28 Nordeste 0 901.5 -- 66
2020-09-08 00:00:00 10.9 6 Nordeste 29 Norte 0 901.3 -- 64
2020-09-07 23:00:00 11.4 7 Norte 22 Norte 0 901.5 -- 61
2020-09-07 22:00:00 12.4 15 Norte 34 Norte 0 901.2 -- 55
2020-09-07 21:00:00 14 5 Norte 30 Nordeste 0 900.2 -- 50
2020-09-07 20:00:00 16.9 8 Norte 31 Nordeste 0 899.4 -- 40
2020-09-07 19:00:00 18.7 9 Norte 30 Nordeste 0 899.5 -- 37
2020-09-07 18:00:00 19.1 17 Norte 32 Norte 0 899.2 -- 35
2020-09-07 17:00:00 19.5 18 Nordeste 36 Nordeste 0 899 -- 34
2020-09-07 16:00:00 19.3 20 Nordeste 48 Nordeste 0 898.6 -- 34
2020-09-07 15:00:00 18.9 22 Nordeste 44 Nordeste 0 898.8 -- 37
2020-09-07 14:00:00 18.8 20 Norte 41 Norte 0 898.9 -- 38
2020-09-07 13:00:00 17.4 13 Norte 44 Nordeste 0 900 -- 46
2020-09-07 12:00:00 14.8 21 Nordeste 41 Norte 0 900.1 -- 53
2020-09-07 11:00:00 13.7 15 Norte 34 Norte 0 899.9 -- 59
2020-09-07 10:00:00 13 16 Norte 41 Nordeste 0 899.4 -- 61
2020-09-07 09:00:00 11.3 12 Norte 41 Norte 0 898.4 -- 66
2020-09-07 08:00:00 10.4 22 Norte 39 Nordeste 0 898.3 -- 69
2020-09-07 07:00:00 10.2 12 Nordeste 31 Nordeste 0 898.2 -- 67
2020-09-07 06:00:00 10.5 11 Nordeste 22 Norte 0 897.9 -- 67
2020-09-07 05:00:00 10.5 10 Norte 24 Nordeste 0 897.7 -- 74
2020-09-07 04:00:00 10.8 14 Nordeste 39 Nordeste 0 898 -- 74
2020-09-07 03:00:00 10.8 18 Nordeste 28 Nordeste 0 898.4 -- 70
2020-09-07 02:00:00 11.2 15 Nordeste 31 Nordeste 0 898.7 -- 68
2020-09-07 01:00:00 11.8 16 Nordeste 32 Nordeste 0 898.4 -- 70
2020-09-07 00:00:00 12.1 14 Norte 28 Nordeste 0 898.1 -- 70
2020-09-06 23:00:00 12.4 13 Nordeste 33 Nordeste 0 897.9 -- 67
2020-09-06 22:00:00 13.1 8 Nordeste 23 Nordeste 0 897.5 -- 64
2020-09-06 21:00:00 14.6 9 Nordeste 24 Este 0 897 -- 60
2020-09-06 20:00:00 16.8 14 Nordeste 31 Nordeste 0 896.6 -- 55
2020-09-06 19:00:00 18.4 16 Nordeste 38 Nordeste 0 896.3 -- 51
2020-09-06 18:00:00 20.2 26 Nordeste 39 Norte 0 896.4 -- 48
2020-09-06 17:00:00 22.3 16 Nordeste 28 Este 0 896.3 -- 47
2020-09-06 16:00:00 25.7 15 Este 28 Este 0 896.2 -- 38
2020-09-06 15:00:00 25.8 12 Este 23 Este 0 896.8 -- 39
2020-09-06 14:00:00 25.2 6 Sudeste 16 Este 0 897.4 -- 40
2020-09-06 13:00:00 23.2 6 Sur 13 Sudeste 0 897.9 -- 43
2020-09-06 12:00:00 21.2 8 Sur 14 Sudeste 0 898.1 -- 52
2020-09-06 11:00:00 18.7 6 Sudeste 14 Este 0 898.5 -- 63
2020-09-06 10:00:00 15.3 5 Este 9 Este 0 898.3 -- 78
2020-09-06 09:00:00 12.5 4 Este 10 Nordeste 0 898.3 -- 89
2020-09-06 08:00:00 12 4 Este 9 Nordeste 0 898.1 -- 89
2020-09-06 07:00:00 12.5 3 Este 6 Este 0 897.9 -- 88
2020-09-06 06:00:00 12.3 0 Calma 10 Nordeste 0 898.3 -- 88
2020-09-06 05:00:00 12.8 6 Nordeste 14 Nordeste 0 898.4 -- 88
2020-09-06 04:00:00 13 6 Nordeste 18 Nordeste 0 898.7 -- 86
2020-09-06 03:00:00 13.4 8 Nordeste 16 Nordeste 0 899 -- 86
2020-09-06 02:00:00 14.2 5 Este 12 Este 0 899.3 -- 81
2020-09-06 01:00:00 15.1 6 Este 11 Este 0 899.3 -- 78
2020-09-06 00:00:00 15.6 5 Este 13 Este 0 899.1 -- 77
2020-09-05 23:00:00 16.4 8 Este 15 Nordeste 0 899.1 -- 74
2020-09-05 22:00:00 18.2 7 Nordeste 19 Nordeste 0 898.9 -- 67
2020-09-05 21:00:00 20.3 10 Norte 26 Nordeste 0 898.5 -- 60
2020-09-05 20:00:00 23 15 Nordeste 32 Nordeste 0 898.2 -- 53
2020-09-05 19:00:00 26.4 17 Este 30 Este 0 898.1 -- 43
2020-09-05 18:00:00 27.7 13 Nordeste 31 Nordeste 0 898.1 -- 36
2020-09-05 17:00:00 28.4 13 Nordeste 27 Nordeste 0 898.3 -- 33
2020-09-05 16:00:00 29.5 15 Este 31 Este 0 898.8 -- 31
2020-09-05 15:00:00 29.5 13 Este 38 Nordeste 0 899.4 -- 29
2020-09-05 14:00:00 28.5 9 Sur 21 Sur 0 899.8 -- 32
2020-09-05 13:00:00 27.6 8 Este 20 Nordeste 0 900.2 -- 34
2020-09-05 12:00:00 26.2 11 Sudeste 19 Sudeste 0 900.6 -- 38
2020-09-05 11:00:00 24.3 9 Este 16 Nordeste 0 900.6 -- 39
2020-09-05 10:00:00 20.2 4 Nordeste 7 Nordeste 0 900.5 -- 47
2020-09-05 09:00:00 13.7 5 Este 8 Este 0 900.3 -- 71
2020-09-05 08:00:00 12.4 0 Calma 3 Este 0 900.1 -- 73
2020-09-05 07:00:00 13.2 2 Nordeste 3 Nordeste 0 899.8 -- 68
2020-09-05 06:00:00 13.8 0 Calma 5 Este 0 899.9 -- 66
2020-09-05 05:00:00 14.1 2 Este 8 Nordeste 0 900.2 -- 65
2020-09-05 04:00:00 14.4 2 Nordeste 9 Este 0 900.5 -- 65
2020-09-05 03:00:00 15.3 3 Este 6 Nordeste 0 900.7 -- 62
2020-09-05 02:00:00 16.6 3 Nordeste 7 Nordeste 0 900.9 -- 58
2020-09-05 01:00:00 17.6 3 Sudeste 8 Este 0 901.2 -- 54
2020-09-05 00:00:00 19.7 3 Este 5 Este 0 901.2 -- 43
2020-09-04 23:00:00 21.1 3 Nordeste 10 Este 0 901.3 -- 41
2020-09-04 22:00:00 22.9 7 Este 17 Sudeste 0 900.9 -- 37
2020-09-04 21:00:00 26.5 4 Sudoeste 12 Sur 0 900.1 -- 24
2020-09-04 20:00:00 29.4 5 Sur 25 Oeste 0 899.8 -- 20
2020-09-04 19:00:00 30.9 8 Sur 19 Sudoeste 0 899.9 -- 19
2020-09-04 18:00:00 31.5 10 Sur 21 Sudeste 0 900.1 -- 20
2020-09-04 17:00:00 31.5 8 Sudoeste 21 Sur 0 900.5 -- 19
2020-09-04 16:00:00 30.4 5 Nordeste 18 Sudeste 0 901.2 -- 23
2020-09-04 15:00:00 30.3 5 Sudeste 19 Sudoeste 0 901.9 -- 25
2020-09-04 14:00:00 28.9 5 Sur 13 Sur 0 902.5 -- 28
2020-09-04 13:00:00 26.7 6 Sur 17 Sur 0 903.1 -- 34
2020-09-04 12:00:00 24.6 5 Sudeste 12 Sur 0 903.5 -- 38
2020-09-04 11:00:00 22.3 5 Sur 10 Sur 0 903.5 -- 46
2020-09-04 10:00:00 18.3 4 Este 8 Este 0 903.3 -- 46
2020-09-04 09:00:00 12.9 3 Nordeste 9 Norte 0 903 -- 65
2020-09-04 08:00:00 11.2 3 Este 6 Nordeste 0 902.6 -- 66
2020-09-04 07:00:00 11.2 2 Noroeste 8 Nordeste 0 902.5 -- 65
2020-09-04 06:00:00 10.6 2 Este 6 Este 0 902.2 -- 67
2020-09-04 05:00:00 11.2 3 Sudeste 5 Este 0 902.3 -- 64
2020-09-04 04:00:00 11.5 3 Este 6 Este 0 902.4 -- 63
2020-09-04 03:00:00 12.9 3 Este 5 Nordeste 0 902.7 -- 58
2020-09-04 02:00:00 13.6 0 Calma 6 Nordeste 0 902.9 -- 55
2020-09-04 01:00:00 15.3 0 Calma 4 Este 0 902.8 -- 50
2020-09-04 00:00:00 17.2 2 Sudeste 6 Nordeste 0 902.7 -- 44
2020-09-03 23:00:00 19 3 Este 8 Nordeste 0 902.3 -- 40
2020-09-03 22:00:00 21 4 Nordeste 14 Este 0 901.7 -- 37
2020-09-03 21:00:00 23.4 8 Este 15 Este 0 900.8 -- 32
2020-09-03 20:00:00 28 5 Este 13 Este 0 900.2 -- 16
2020-09-03 19:00:00 29.2 8 Este 19 Este 0 900.1 -- 12
2020-09-03 18:00:00 29.6 9 Este 19 Este 0 900.1 -- 11
2020-09-03 17:00:00 29.8 9 Este 17 Este 0 900.1 -- 12
2020-09-03 16:00:00 29 7 Sudeste 16 Sur 0 900.2 -- 13
2020-09-03 15:00:00 27.7 5 Nordeste 12 Nordeste 0 900.6 -- 16
2020-09-03 14:00:00 26.6 5 Sudeste 10 Sur 0 900.9 -- 18
2020-09-03 13:00:00 -- -- -- -- -- -- -- -- --
2020-09-03 12:00:00 -- -- -- -- -- -- -- -- --
2020-09-03 11:00:00 19.5 4 Sur 9 Sur 0 901.3 -- 36
2020-09-03 10:00:00 14.9 2 Nordeste 6 Este 0 900.7 -- 43
2020-09-03 09:00:00 8.6 3 Este 8 Noroeste 0 900.4 -- 69
2020-09-03 08:00:00 6 0 Calma 5 Sudeste 0 900 -- 72
2020-09-03 07:00:00 7.2 2 Nordeste 7 Norte 0 899.7 -- 71
2020-09-03 06:00:00 8 3 Norte 8 Sudeste 0 899.6 -- 77
2020-09-03 05:00:00 8.7 0 Calma 7 Norte 0 899.4 -- 73
2020-09-03 04:00:00 10.6 3 Norte 5 Norte 0 899.2 -- 68
2020-09-03 03:00:00 11.5 2 Noroeste 6 Nordeste 0 899.1 -- 64
2020-09-03 02:00:00 13.1 0 Calma 4 Sur 0 899 -- 58
2020-09-03 01:00:00 13.6 2 Sudoeste 6 Nordeste 0 898.9 -- 57
2020-09-03 00:00:00 14.3 6 Este 11 Nordeste 0 898.8 -- 55
2020-09-02 23:00:00 15.6 5 Nordeste 16 Este 0 898.6 -- 49
2020-09-02 22:00:00 17.4 8 Nordeste 26 Nordeste 0 898.2 -- 43
2020-09-02 21:00:00 19.1 12 Nordeste 25 Nordeste 0 897.5 -- 39
2020-09-02 20:00:00 21.6 15 Nordeste 26 Nordeste 0 896.8 -- 34
2020-09-02 19:00:00 23.8 13 Nordeste 26 Nordeste 0 896.1 -- 28
2020-09-02 18:00:00 25 12 Nordeste 21 Norte 0 895.8 -- 25
2020-09-02 17:00:00 25.1 12 Nordeste 23 Norte 0 895.7 -- 24
2020-09-02 16:00:00 25.2 9 Nordeste 16 Este 0 896 -- 24
2020-09-02 15:00:00 23.9 6 Norte 14 Norte 0 896.3 -- 26
2020-09-02 14:00:00 22.2 6 Norte 18 Nordeste 0 896.6 -- 29
2020-09-02 13:00:00 21.5 8 Norte 23 Nordeste 0 896.7 -- 31
2020-09-02 12:00:00 19.4 6 Nordeste 22 Nordeste 0 897.1 -- 41
2020-09-02 11:00:00 17.6 12 Nordeste 24 Nordeste 0 896.9 -- 45
2020-09-02 10:00:00 15.7 9 Norte 20 Norte 0 896.4 -- 52
2020-09-02 09:00:00 12.3 10 Norte 22 Nordeste 0 896.2 -- 70
2020-09-02 08:00:00 10.6 9 Nordeste 15 Nordeste 0 896.3 -- 78
2020-09-02 07:00:00 10.7 6 Nordeste 16 Nordeste 0 895.5 -- 76
2020-09-02 06:00:00 10.8 6 Nordeste 15 Nordeste 0 895.3 -- 75
2020-09-02 05:00:00 11.1 8 Nordeste 17 Norte 0 895.3 -- 71
2020-09-02 04:00:00 11.7 9 Nordeste 24 Nordeste 0 895.1 -- 68
2020-09-02 03:00:00 12.2 15 Nordeste 27 Nordeste 0 895 -- 65
2020-09-02 02:00:00 13 10 Nordeste 25 Nordeste 0 895.2 -- 58
2020-09-02 01:00:00 13.2 13 Nordeste 27 Nordeste 0 895 -- 58
2020-09-02 00:00:00 13.9 14 Nordeste 37 Nordeste 0 894.9 -- 60
2020-09-01 23:00:00 15 19 Nordeste 31 Nordeste 0 894.7 -- 55
2020-09-01 22:00:00 16.1 7 Nordeste 22 Nordeste 0 894.4 -- 45
2020-09-01 21:00:00 18 12 Nordeste 29 Nordeste 0 893.6 -- 39
2020-09-01 20:00:00 20.3 15 Nordeste 28 Nordeste 0 892.9 -- 30
2020-09-01 19:00:00 22.5 15 Este 32 Este 0 892.6 -- 25
2020-09-01 18:00:00 23.2 16 Este 30 Este 0 892.5 -- 28
2020-09-01 17:00:00 23.3 8 Nordeste 23 Nordeste 0 892.2 -- 24
2020-09-01 16:00:00 24.8 7 Norte 16 Norte 0 892.6 -- 20
2020-09-01 15:00:00 24.5 8 Sudeste 18 Norte 0 893 -- 22
2020-09-01 14:00:00 22.9 10 Este 20 Sur 0 893.5 -- 25
2020-09-01 13:00:00 22 7 Nordeste 15 Nordeste 0 894 -- 26
2020-09-01 12:00:00 20 4 Norte 9 Nordeste 0 894.3 -- 32
2020-09-01 11:00:00 17.5 3 Nordeste 7 Nordeste 0 894.7 -- 46
2020-09-01 10:00:00 13.3 2 Noroeste 8 Noroeste 0 894.8 -- 62
2020-09-01 09:00:00 10.8 3 Sudoeste 8 Nordeste 0 894.6 -- 71
2020-09-01 08:00:00 10.1 3 Este 15 Norte 0 894.7 -- 73
2020-09-01 07:00:00 9.5 3 Este 7 Este 0 894.4 -- 72
2020-09-01 06:00:00 9.6 2 Norte 5 Sudeste 0 894.9 -- 69
2020-09-01 05:00:00 10 0 Calma 5 Noroeste 0 895.3 -- 69
2020-09-01 04:00:00 10.9 3 Sudeste 6 Norte 0 895.5 -- 65
2020-09-01 03:00:00 11.7 0 Calma 4 Noroeste 0 896 -- 63
2020-09-01 02:00:00 12 0 Calma 6 Nordeste 0 896.2 -- 61
2020-09-01 01:00:00 13.6 4 Este 10 Nordeste 0 896.4 -- 54
2020-09-01 00:00:00 14.8 3 Nordeste 5 Nordeste 0 896.1 -- 48
2020-08-31 23:00:00 15.5 2 Este 13 Este 0 896.2 -- 43
2020-08-31 22:00:00 16.5 6 Nordeste 18 Nordeste 0 896.1 -- 38
2020-08-31 21:00:00 19.3 5 Norte 12 Oeste 0 895.7 -- 29
2020-08-31 20:00:00 21 9 Oeste 19 Sudoeste 0 895.5 -- 22
2020-08-31 19:00:00 22.2 11 Oeste 27 Sudoeste 0 895.6 -- 18
2020-08-31 18:00:00 23.8 11 Oeste 26 Sudoeste 0 895.7 -- 14
2020-08-31 17:00:00 23.7 15 Oeste 30 Sur 0 895.9 -- 17
2020-08-31 16:00:00 23.2 9 Sudoeste 24 Oeste 0 896.4 -- 18
2020-08-31 15:00:00 22.3 7 Sudoeste 19 Oeste 0 896.8 -- 22
2020-08-31 14:00:00 20.8 9 Sudoeste 20 Sur 0 897.3 -- 28
2020-08-31 13:00:00 19 5 Sudoeste 14 Sudoeste 0 897.8 -- 33
2020-08-31 12:00:00 17 6 Sudoeste 13 Oeste 0 898.1 -- 36
2020-08-31 11:00:00 13.9 5 Noroeste 10 Oeste 0 898.2 -- 54
2020-08-31 10:00:00 10.5 3 Norte 7 Norte 0 898.4 -- 67
2020-08-31 09:00:00 6.2 4 Norte 7 Noroeste 0 898.1 -- 86
2020-08-31 08:00:00 4.7 3 Norte 7 Noroeste 0 897.9 -- 88
2020-08-31 07:00:00 5.2 2 Noroeste 8 Norte 0 897.7 -- 86
2020-08-31 06:00:00 5.8 3 Norte 5 Noroeste 0 897.6 -- 84
2020-08-31 05:00:00 6.3 3 Noroeste 6 Nordeste 0 897.8 -- 81
2020-08-31 04:00:00 7.4 3 Norte 14 Nordeste 0 897.8 -- 80
2020-08-31 03:00:00 8 7 Norte 10 Norte 0 897.8 -- 78
2020-08-31 02:00:00 8.2 3 Norte 8 Norte 0 898 -- 76
2020-08-31 01:00:00 8.9 4 Este 23 Noroeste 0 897.9 -- 73
2020-08-31 00:00:00 9.4 11 Nordeste 22 Nordeste 0 897.9 -- 73
2020-08-30 23:00:00 9.8 9 Nordeste 32 Nordeste 0 897.6 -- 71
2020-08-30 22:00:00 10.4 14 Nordeste 26 Nordeste 0 896.9 -- 68
2020-08-30 21:00:00 11.7 12 Nordeste 27 Norte 0 896.2 -- 67
2020-08-30 20:00:00 13.8 14 Norte 33 Norte 0 895.5 -- 54
2020-08-30 19:00:00 15.2 14 Norte 33 Norte 0 894.9 -- 45
2020-08-30 18:00:00 15.5 14 Norte 31 Nordeste 0 894.6 -- 43
2020-08-30 17:00:00 16.5 17 Nordeste 35 Nordeste 0 894.3 -- 40
2020-08-30 16:00:00 16.6 12 Nordeste 34 Norte 0 894.4 -- 40
2020-08-30 15:00:00 15.9 14 Norte 33 Norte 0 894.6 -- 43
2020-08-30 14:00:00 15.7 21 Nordeste 36 Norte 0 894.7 -- 44
2020-08-30 13:00:00 15.3 16 Nordeste 28 Nordeste 0 894.6 -- 41
2020-08-30 12:00:00 14.4 10 Nordeste 23 Nordeste 0 894.5 -- 42
2020-08-30 11:00:00 13.3 5 Sur 12 Sur 0 894.2 -- 51
2020-08-30 10:00:00 11.3 3 Sur 9 Sur 0 893.6 -- 64
2020-08-30 09:00:00 7.5 5 Sudoeste 10 Oeste 0 893.2 -- 79
2020-08-30 08:00:00 6.3 2 Sudoeste 10 Oeste 0 892.7 -- 81
2020-08-30 07:00:00 7.1 3 Noroeste 12 Nordeste 0 892.2 -- 78
2020-08-30 06:00:00 7 3 Oeste 11 Oeste 0 892 -- 80
2020-08-30 05:00:00 7.9 6 Oeste 11 Oeste 0 891.9 -- 74
2020-08-30 04:00:00 8.2 5 Oeste 9 Sur 0 891.9 -- 78
2020-08-30 03:00:00 9 4 Norte 27 Nordeste 0 891.8 -- 75
2020-08-30 02:00:00 8.7 8 Norte 18 Norte 0 892.1 -- 75
2020-08-30 01:00:00 8.7 5 Norte 31 Norte 0 892 -- 71
2020-08-30 00:00:00 9.9 12 Norte 24 Norte 0 891.7 -- 64
2020-08-29 23:00:00 10.3 8 Norte 35 Norte 0 890.7 -- 71
2020-08-29 22:00:00 11.3 8 Noroeste 18 Norte 0 890.3 -- 73
2020-08-29 21:00:00 -- -- -- -- -- -- -- -- --
2020-08-29 20:00:00 -- -- -- -- -- -- -- -- --
2020-08-29 19:00:00 -- -- -- -- -- -- -- -- --
2020-08-29 18:00:00 -- -- -- -- -- -- -- -- --
2020-08-29 17:00:00 -- -- -- -- -- -- -- -- --
2020-08-29 16:00:00 17.9 11 Noroeste 27 Noroeste 0 887.5 -- 40
2020-08-29 15:00:00 19 9 Noroeste 28 Noroeste 0 887.6 -- 35
2020-08-29 14:00:00 19.4 9 Norte 26 Norte 0 887.6 -- 35
2020-08-29 13:00:00 18.5 9 Norte 30 Norte 0 887.9 -- 36
2020-08-29 12:00:00 17.2 10 Norte 29 Norte 0 888 -- 41
2020-08-29 11:00:00 15.4 14 Norte 27 Norte 0 887.9 -- 49
2020-08-29 10:00:00 14.3 10 Norte 26 Norte 0 887.7 -- 53
2020-08-29 09:00:00 9.8 3 Noroeste 8 Noroeste 0 887.6 -- 71
2020-08-29 08:00:00 8.8 3 Norte 15 Nordeste 0 887.5 -- 74
2020-08-29 07:00:00 8.9 3 Norte 16 Nordeste 0 887.5 -- 76
2020-08-29 06:00:00 9.6 4 Norte 10 Este 0 887.6 -- 75
2020-08-29 05:00:00 10.3 5 Nordeste 20 Nordeste 0 887.4 -- 73
2020-08-29 04:00:00 10.7 10 Nordeste 23 Nordeste 0 887.7 -- 73
2020-08-29 03:00:00 11.6 6 Norte 26 Norte 0 887.9 -- 69
2020-08-29 02:00:00 11.6 13 Norte 32 Norte 0 888.5 -- 69
2020-08-29 01:00:00 11.6 14 Norte 31 Nordeste 0 888.6 -- 73
2020-08-29 00:00:00 11.7 18 Nordeste 40 Nordeste 0 888.6 -- 74
2020-08-28 23:00:00 12.5 17 Nordeste 34 Norte 0 888.6 -- 76
2020-08-28 22:00:00 13.2 13 Nordeste 28 Nordeste 0 888.4 -- 78
2020-08-28 21:00:00 14.9 12 Nordeste 33 Nordeste 0 888.1 -- 72
2020-08-28 20:00:00 16.6 16 Nordeste 37 Nordeste 0 887.6 -- 68
2020-08-28 19:00:00 19.8 14 Nordeste 32 Este 0 887.4 -- 60
2020-08-28 18:00:00 21.2 15 Este 30 Este 0 887.2 -- 58
2020-08-28 17:00:00 26 10 Norte 32 Oeste 0 887.4 -- 45
2020-08-28 16:00:00 27.9 15 Oeste 37 Oeste 0 887.7 -- 31
2020-08-28 15:00:00 27.4 10 Noroeste 27 Noroeste 0 888.5 -- 37
2020-08-28 14:00:00 26.1 15 Oeste 33 Oeste 0 889.2 -- 41
2020-08-28 13:00:00 25.3 10 Oeste 26 Oeste 0 889.9 -- 48
2020-08-28 12:00:00 24.5 4 Oeste 12 Sudoeste 0 890.3 -- 54
2020-08-28 11:00:00 21.6 4 Sudoeste 8 Sudoeste 0 890.8 -- 63
2020-08-28 10:00:00 19.1 3 Oeste 9 Oeste 0 891 -- 73
2020-08-28 09:00:00 17.4 6 Sudoeste 10 Sudoeste 0 891.4 -- 80
2020-08-28 08:00:00 16.6 3 Norte 6 Este 0 891.6 -- 84
2020-08-28 07:00:00 17.2 3 Norte 8 Norte 0 891.7 -- 82
2020-08-28 06:00:00 16.9 4 Norte 9 Norte 0 892.1 -- 85
2020-08-28 05:00:00 17 0 Calma 5 Norte 0 892.4 -- 84
2020-08-28 04:00:00 17.6 0 Calma 8 Nordeste 0 892.8 -- 80
2020-08-28 03:00:00 18.3 3 Nordeste 10 Este 0 893.4 -- 81
2020-08-28 02:00:00 18.8 6 Este 12 Nordeste 0 894.3 -- 79
2020-08-28 01:00:00 19.7 7 Nordeste 17 Nordeste 0 894.8 -- 76
2020-08-28 00:00:00 20.8 7 Nordeste 15 Nordeste 0 895.2 -- 71
2020-08-27 23:00:00 22 9 Nordeste 18 Nordeste 0 895.4 -- 66
2020-08-27 22:00:00 23.6 10 Nordeste 24 Nordeste 0 895.2 -- 58
2020-08-27 21:00:00 26.6 6 Nordeste 20 Nordeste 0 895.1 -- 40
2020-08-27 20:00:00 31.3 7 Noroeste 24 Oeste 0 894.9 -- 18
2020-08-27 19:00:00 32.2 10 Oeste 29 Sudoeste 0 895.2 -- 18
2020-08-27 18:00:00 32.8 16 Oeste 32 Oeste 0 895.5 -- 19
2020-08-27 17:00:00 33.2 12 Sudoeste 30 Sudoeste 0 895.9 -- 20
2020-08-27 16:00:00 32.8 13 Sudoeste 35 Sudoeste 0 896.6 -- 19
2020-08-27 15:00:00 32.3 9 Oeste 31 Sur 0 897.3 -- 19
2020-08-27 14:00:00 31.8 12 Sudoeste 26 Sudoeste 0 897.7 -- 23
2020-08-27 13:00:00 30.5 12 Sudoeste 28 Oeste 0 898.3 -- 27
2020-08-27 12:00:00 28.5 5 Oeste 12 Oeste 0 898.7 -- 37
2020-08-27 11:00:00 26 3 Sudoeste 7 Sudoeste 0 899 -- 45
2020-08-27 10:00:00 21.2 3 Norte 8 Norte 0 898.9 -- 58
2020-08-27 09:00:00 16.6 3 Norte 6 Norte 0 899.1 -- 78
2020-08-27 08:00:00 15.5 2 Norte 5 Norte 0 899.1 -- 79
2020-08-27 07:00:00 16 2 Norte 7 Norte 0 899 -- 77
2020-08-27 06:00:00 16 2 Nordeste 4 Norte 0 898.9 -- 77
2020-08-27 05:00:00 16.2 2 Norte 5 Norte 0 899.3 -- 80
2020-08-27 04:00:00 16.5 3 Norte 4 Norte 0 899.3 -- 77
2020-08-27 03:00:00 17.4 0 Calma 7 Este 0 899.5 -- 74
2020-08-27 02:00:00 19 5 Este 11 Nordeste 0 899.8 -- 71
2020-08-27 01:00:00 20.5 6 Norte 14 Nordeste 0 900.1 -- 72
2020-08-27 00:00:00 21.3 5 Nordeste 11 Norte 0 900.1 -- 66
2020-08-26 23:00:00 22.4 5 Este 18 Este 0 900 -- 58
2020-08-26 22:00:00 24 5 Nordeste 22 Norte 0 899.6 -- 48
2020-08-26 21:00:00 26.2 12 Nordeste 28 Este 0 898.8 -- 42
2020-08-26 20:00:00 28.7 14 Nordeste 26 Este 0 898.4 -- 36
2020-08-26 19:00:00 33.4 10 Oeste 27 Oeste 0 898.1 -- 17
2020-08-26 18:00:00 33.7 12 Oeste 28 Oeste 0 898.1 -- 15
2020-08-26 17:00:00 34 15 Oeste 30 Oeste 0 898.3 -- 15
2020-08-26 16:00:00 33.8 13 Oeste 34 Sudoeste 0 898.5 -- 13
2020-08-26 15:00:00 33.2 14 Sudoeste 26 Sudoeste 0 898.8 -- 17
2020-08-26 14:00:00 32.2 9 Sudoeste 20 Sur 0 899 -- 20
2020-08-26 13:00:00 30.7 4 Oeste 12 Sur 0 899.5 -- 27
2020-08-26 12:00:00 27.8 4 Noroeste 9 Sudoeste 0 899.7 -- 35
2020-08-26 11:00:00 25.6 4 Sudeste 8 Sur 0 899.5 -- 41
2020-08-26 10:00:00 21 2 Oeste 8 Este 0 899.3 -- 52
2020-08-26 09:00:00 15.8 3 Sudeste 6 Norte 0 899 -- 69
2020-08-26 08:00:00 14.2 2 Norte 5 Norte 0 898.9 -- 73
2020-08-26 07:00:00 14.9 3 Noroeste 8 Oeste 0 898.7 -- 69
2020-08-26 06:00:00 15.7 3 Norte 6 Norte 0 898.5 -- 66
2020-08-26 05:00:00 16.4 0 Calma 12 Noroeste 0 898.3 -- 65
2020-08-26 04:00:00 17.6 3 Nordeste 15 Nordeste 0 898.4 -- 58
2020-08-26 03:00:00 17.5 5 Este 13 Nordeste 0 898.4 -- 60
2020-08-26 02:00:00 19.5 5 Norte 13 Nordeste 0 898.4 -- 56
2020-08-26 01:00:00 20 4 Nordeste 11 Nordeste 0 898.3 -- 52
2020-08-26 00:00:00 21.2 6 Nordeste 12 Nordeste 0 898.3 -- 48
2020-08-25 23:00:00 22.5 5 Nordeste 14 Nordeste 0 898 -- 40
2020-08-25 22:00:00 24.7 9 Nordeste 18 Nordeste 0 897.1 -- 34
2020-08-25 21:00:00 28.6 2 Norte 13 Norte 0 896.1 -- 23
2020-08-25 20:00:00 31.5 6 Noroeste 19 Noroeste 0 895.8 -- 18
2020-08-25 19:00:00 32.7 11 Oeste 28 Noroeste 0 895.6 -- 17
2020-08-25 18:00:00 33.1 14 Oeste 29 Oeste 0 895.8 -- 17
2020-08-25 17:00:00 32.8 19 Oeste 33 Sudoeste 0 895.9 -- 17
2020-08-25 16:00:00 32.5 14 Oeste 33 Oeste 0 896 -- 18
2020-08-25 15:00:00 32.1 14 Oeste 42 Oeste 0 896.4 -- 19
2020-08-25 14:00:00 31.2 12 Sudoeste 28 Sudoeste 0 896.5 -- 22
2020-08-25 13:00:00 29.7 5 Sudoeste 16 Oeste 0 896.8 -- 27
2020-08-25 12:00:00 27.2 5 Sur 11 Sur 0 897.1 -- 31
2020-08-25 11:00:00 24.1 3 Sur 9 Sur 0 896.9 -- 40
2020-08-25 10:00:00 19.1 2 Sur 4 Sur 0 896.7 -- 55
2020-08-25 09:00:00 13 2 Sudeste 5 Sudeste 0 896.5 -- 76
2020-08-25 08:00:00 11.7 4 Norte 8 Norte 0 896.3 -- 77
2020-08-25 07:00:00 11.8 0 Calma 8 Norte 0 895.9 -- 76
2020-08-25 06:00:00 12.4 0 Calma 8 Noroeste 0 896 -- 75
2020-08-25 05:00:00 12.5 2 Noroeste 6 Norte 0 896.2 -- 75
2020-08-25 04:00:00 12.8 2 Norte 5 Norte 0 896.1 -- 70
2020-08-25 03:00:00 13.7 0 Calma 4 Sudeste 0 896.2 -- 66
2020-08-25 02:00:00 15.2 0 Calma 6 Sudeste 0 896.5 -- 62
2020-08-25 01:00:00 17.1 3 Nordeste 9 Norte 0 896.6 -- 60
2020-08-25 00:00:00 18.2 0 Calma 5 Nordeste 0 896.6 -- 56
2020-08-24 23:00:00 19.5 3 Nordeste 9 Este 0 896.7 -- 52
2020-08-24 22:00:00 20.7 6 Este 16 Nordeste 0 896 -- 49
2020-08-24 21:00:00 25.6 5 Nordeste 17 Nordeste 0 895.2 -- 33
2020-08-24 20:00:00 28.6 9 Oeste 22 Oeste 0 895.1 -- 17
2020-08-24 19:00:00 29.8 13 Oeste 23 Sudoeste 0 895.2 -- 16
2020-08-24 18:00:00 30.1 13 Oeste 27 Oeste 0 895.4 -- 15
2020-08-24 17:00:00 29 10 Oeste 25 Oeste 0 895.8 -- 20
2020-08-24 16:00:00 29.2 13 Sudoeste 26 Sur 0 896.3 -- 22
2020-08-24 15:00:00 28.4 10 Sudoeste 23 Sudoeste 0 897 -- 27
2020-08-24 14:00:00 27.2 7 Sur 15 Oeste 0 897.3 -- 33
2020-08-24 13:00:00 25.2 5 Este 14 Sudeste 0 897.9 -- 38
2020-08-24 12:00:00 23.5 4 Este 10 Sudoeste 0 898.2 -- 41
2020-08-24 11:00:00 21.3 5 Sur 9 Este 0 898.4 -- 47
2020-08-24 10:00:00 18.3 4 Sudeste 6 Este 0 898.6 -- 55
2020-08-24 09:00:00 12.7 0 Calma 5 Sudeste 0 898.4 -- 80
2020-08-24 08:00:00 11 0 Calma 5 Norte 0 898.4 -- 82
2020-08-24 07:00:00 11.6 2 Norte 6 Norte 0 898.2 -- 78
2020-08-24 06:00:00 12.4 3 Noroeste 8 Norte 0 898.4 -- 76
2020-08-24 05:00:00 13.1 3 Sudoeste 8 Sudoeste 0 898.5 -- 75
2020-08-24 04:00:00 13.6 0 Calma 5 Nordeste 0 898.7 -- 69
2020-08-24 03:00:00 14.2 3 Nordeste 10 Este 0 898.8 -- 67
2020-08-24 02:00:00 14.9 6 Nordeste 14 Nordeste 0 899 -- 67
2020-08-24 01:00:00 16.4 4 Nordeste 16 Nordeste 0 899.3 -- 62
2020-08-24 00:00:00 16.7 6 Nordeste 18 Nordeste 0 899.4 -- 62